Time;durP1;ratioP1;P1;durP2;ratioP2;P2;SDS_P1;SDS_P2;PMS_P1;PMS_P2;Temp;Humidity;BMP_temperature;BMP_pressure;BME280_temperature;BME280_humidity;BME280_pressure;Samples;Min_cycle;Max_cycle;Signal;HPM_P1;HPM_P2
2022/07/26 07:16:29;;;;;;;7.18;6.57;;;;;;;29.37;41.71;94230.97;2618578;54;21944;-81
2022/07/26 07:18:58;;;;;;;6.80;6.18;;;;;;;29.49;41.54;94230.41;2621649;54;20168;-78
2022/07/26 07:21:27;;;;;;;6.38;5.85;;;;;;;29.23;41.85;94231.63;2621717;47;20168;-80
2022/07/26 07:23:55;;;;;;;6.90;6.30;;;;;;;29.20;42.25;94239.06;2618879;47;20171;-80
2022/07/26 07:26:24;;;;;;;6.22;5.50;;;;;;;29.15;41.99;94247.28;2620312;47;20198;-79
2022/07/26 07:28:53;;;;;;;6.18;5.57;;;;;;;29.44;41.64;94240.16;2620887;47;20179;-79
2022/07/26 07:31:21;;;;;;;7.07;6.35;;;;;;;29.57;41.66;94241.69;2621632;51;20145;-79
2022/07/26 07:33:52;;;;;;;6.35;5.85;;;;;;;29.52;41.24;94245.63;2621867;54;20255;-78
2022/07/26 07:36:21;;;;;;;7.80;6.85;;;;;;;29.45;40.99;94213.09;2621429;47;20164;-78
2022/07/26 07:38:51;;;;;;;6.60;5.57;;;;;;;29.96;40.11;94243.47;2621043;54;20199;-77
2022/07/26 07:41:20;;;;;;;7.88;6.25;;;;;;;29.75;40.36;94224.81;2618006;46;20152;-77
2022/07/26 07:43:49;;;;;;;6.13;5.57;;;;;;;29.81;40.73;94242.03;2620987;46;20172;-83
2022/07/26 07:46:17;;;;;;;6.18;5.57;;;;;;;30.13;39.90;94237.53;2620394;47;20168;-81
2022/07/26 07:48:49;;;;;;;6.18;5.45;;;;;;;29.71;40.42;94196.53;2620683;47;20156;-84
2022/07/26 07:51:20;;;;;;;6.53;5.95;;;;;;;29.55;40.39;94130.91;2621336;46;20163;-82
2022/07/26 07:53:49;;;;;;;6.38;5.78;;;;;;;29.24;41.29;94186.38;2620678;46;20167;-76
2022/07/26 07:56:18;;;;;;;7.90;7.07;;;;;;;28.48;42.91;94167.94;2621010;47;20187;-77
2022/07/26 07:58:48;;;;;;;7.45;6.75;;;;;;;29.44;41.52;94228.47;2621905;38;20522;-77
2022/07/26 08:01:19;;;;;;;5.90;5.40;;;;;;;29.70;39.46;94189.28;2622243;54;20153;-78
2022/07/26 08:03:49;;;;;;;5.68;5.15;;;;;;;30.07;39.14;94190.44;2621208;54;20168;-77
2022/07/26 08:06:25;;;;;;;10.98;5.68;;;;;;;30.28;39.24;94206.09;2621689;54;20137;-77
2022/07/26 08:08:54;;;;;;;6.43;5.53;;;;;;;30.30;39.78;94205.31;2621349;47;20159;-76
2022/07/26 08:11:23;;;;;;;7.38;6.78;;;;;;;30.38;39.74;94223.13;2621623;54;20188;-76
2022/07/26 08:13:52;;;;;;;7.47;5.88;;;;;;;30.38;39.25;94228.25;2619759;54;20167;-77
2022/07/26 08:16:21;;;;;;;9.23;6.25;;;;;;;29.43;41.31;94207.34;2621571;54;20199;-81
2022/07/26 08:18:49;;;;;;;6.82;6.18;;;;;;;30.33;39.21;94215.38;2621176;54;20255;-76
2022/07/26 08:21:21;;;;;;;7.55;5.95;;;;;;;30.20;39.27;94159.09;2621632;47;20275;-76
2022/07/26 08:23:49;;;;;;;6.88;6.20;;;;;;;30.33;39.36;94178.09;2621911;47;20208;-79
2022/07/26 08:26:18;;;;;;;6.00;5.40;;;;;;;29.87;39.76;94172.38;2618198;54;20157;-79
2022/07/26 08:28:53;;;;;;;7.00;6.32;;;;;;;29.82;39.55;94179.22;2617926;54;20173;-80
2022/07/26 08:31:27;;;;;;;6.88;6.32;;;;;;;30.23;38.51;94143.56;2618283;39;20559;-78
2022/07/26 08:34:21;;;;;;;7.05;6.38;;;;;;;30.90;37.61;94209.50;2617898;47;20276;-84
2022/07/26 08:40:25;;;;;;;6.75;6.10;;;;;;;30.90;36.80;94119.56;2616641;47;20165;-85
2022/07/26 08:45:44;;;;;;;6.78;5.57;;;;;;;31.51;36.05;94183.50;2617581;47;20164;-79
2022/07/26 08:48:13;;;;;;;6.43;5.93;;;;;;;31.62;36.54;94204.13;2617633;47;20153;-78
2022/07/26 08:50:42;;;;;;;6.60;6.18;;;;;;;31.16;36.30;94173.03;2617455;47;20168;-79
2022/07/26 08:53:12;;;;;;;6.43;5.82;;;;;;;31.74;36.66;94207.09;2617850;39;20543;-78
2022/07/26 08:55:43;;;;;;;6.50;5.85;;;;;;;31.86;36.11;94196.91;2617125;54;20226;-78
2022/07/26 08:58:11;;;;;;;7.15;6.47;;;;;;;31.39;36.41;94158.56;2617318;47;20692;-78
2022/07/26 09:00:42;;;;;;;7.10;6.40;;;;;;;31.85;36.24;94195.50;2617912;54;20169;-78
2022/07/26 09:03:30;;;;;;;7.63;6.88;;;;;;;30.37;37.82;94163.28;2617583;46;20203;-82
2022/07/26 09:06:00;;;;;;;5.93;5.50;;;;;;;31.08;36.84;94159.50;2616774;54;20199;-82
2022/07/26 09:08:31;;;;;;;6.78;6.18;;;;;;;31.44;36.17;94156.09;2616948;39;20708;-81
2022/07/26 09:11:02;;;;;;;6.00;5.50;;;;;;;31.02;35.30;94142.31;2617209;47;20165;-81
2022/07/26 09:13:52;;;;;;;6.03;5.63;;;;;;;31.46;35.67;94191.09;2616630;47;20165;-80
2022/07/26 09:16:20;;;;;;;6.72;5.13;;;;;;;31.24;36.17;94192.34;2615912;54;20164;-77
2022/07/26 09:18:49;;;;;;;8.63;6.40;;;;;;;30.73;36.81;94187.00;2617054;54;20331;-80
2022/07/26 09:21:37;;;;;;;7.22;6.55;;;;;;;30.81;35.77;94133.22;2616606;54;20184;-82
2022/07/26 09:24:11;;;;;;;6.53;6.03;;;;;;;30.36;36.11;94100.50;2616833;54;20145;-82
2022/07/26 09:26:56;;;;;;;5.35;4.95;;;;;;;30.61;35.76;94082.44;2616943;54;20171;-79
2022/07/26 09:29:27;;;;;;;6.40;5.90;;;;;;;31.70;34.86;94169.28;2616811;47;20156;-79
2022/07/26 09:32:12;;;;;;;6.07;5.55;;;;;;;31.55;33.62;94171.59;2616933;54;20160;-75
2022/07/26 09:34:40;;;;;;;5.95;5.35;;;;;;;31.44;33.95;94161.94;2616913;39;20561;-75
2022/07/26 09:37:09;;;;;;;5.60;5.20;;;;;;;32.19;32.27;94171.63;2616663;47;20233;-75
2022/07/26 09:39:55;;;;;;;4.82;4.10;;;;;;;31.95;28.38;94168.56;2616514;54;20152;-75
2022/07/26 09:42:28;;;;;;;4.30;3.90;;;;;;;32.22;28.11;94172.91;2616407;54;20172;-76
2022/07/26 09:44:58;;;;;;;5.75;4.90;;;;;;;32.30;29.81;94158.47;2616406;54;20176;-75
2022/07/26 09:47:37;;;;;;;6.57;5.38;;;;;;;31.59;32.96;94153.06;2617176;54;20232;-76
2022/07/26 09:50:14;;;;;;;5.85;5.35;;;;;;;32.38;30.42;94140.41;2616768;54;20148;-77
2022/07/26 09:53:02;;;;;;;5.68;5.28;;;;;;;32.78;30.73;94146.06;2617429;54;20669;-75
2022/07/26 09:55:31;;;;;;;7.93;7.15;;;;;;;32.68;30.66;94157.66;2617564;39;20563;-78
2022/07/26 09:58:05;;;;;;;6.22;5.72;;;;;;;32.51;31.12;94157.97;2616405;47;20236;-78
2022/07/26 10:00:35;;;;;;;6.22;5.72;;;;;;;31.42;32.22;94151.09;2617161;46;20170;-77
2022/07/26 10:03:03;;;;;;;6.03;5.53;;;;;;;31.69;32.39;94150.31;2617135;47;20164;-75
2022/07/26 10:05:34;;;;;;;5.63;5.13;;;;;;;32.24;30.32;94158.16;2616526;47;20716;-75
2022/07/26 10:08:03;;;;;;;5.85;5.25;;;;;;;32.44;30.14;94134.19;2617120;54;20176;-76
2022/07/26 10:10:35;;;;;;;5.63;4.68;;;;;;;32.79;27.01;94123.31;2616985;47;20164;-78
2022/07/26 10:13:08;;;;;;;3.67;3.38;;;;;;;33.23;25.60;94143.25;2617323;47;20157;-78
2022/07/26 10:15:43;;;;;;;4.15;3.85;;;;;;;33.17;25.22;94144.34;2616486;47;20308;-76
2022/07/26 10:18:13;;;;;;;4.60;4.30;;;;;;;33.31;26.02;94150.88;2616516;54;20743;-76
2022/07/26 10:20:51;;;;;;;4.85;4.38;;;;;;;33.16;25.79;94151.75;2616262;54;20168;-76
2022/07/26 10:23:39;;;;;;;4.32;3.95;;;;;;;32.35;28.10;94094.47;2616712;54;20149;-76
2022/07/26 10:26:09;;;;;;;4.72;3.97;;;;;;;32.70;28.29;94137.72;2616544;47;20160;-78
2022/07/26 10:28:42;;;;;;;3.45;3.22;;;;;;;32.96;26.16;94138.34;2617295;47;20664;-78
2022/07/26 10:31:33;;;;;;;4.53;4.22;;;;;;;32.68;26.30;94113.69;2616263;47;20157;-76
2022/07/26 10:34:03;;;;;;;4.07;3.67;;;;;;;33.12;26.21;94131.44;2617126;54;20188;-79
2022/07/26 10:36:37;;;;;;;4.88;4.47;;;;;;;33.28;25.16;94117.31;2616959;54;20248;-78
2022/07/26 10:39:15;;;;;;;3.92;3.63;;;;;;;33.68;25.01;94135.22;2617390;47;20153;-80
2022/07/26 10:41:46;;;;;;;4.50;4.20;;;;;;;33.18;24.65;94095.16;2617054;47;20299;-79
2022/07/26 10:44:31;;;;;;;4.57;4.28;;;;;;;33.55;24.24;94131.69;2617169;54;20160;-82
2022/07/26 10:47:06;;;;;;;3.83;3.63;;;;;;;33.82;24.76;94124.81;2616743;54;20264;-80
2022/07/26 10:49:37;;;;;;;4.32;4.03;;;;;;;33.69;24.64;94100.69;2615343;54;20172;-80
2022/07/26 10:52:12;;;;;;;3.92;3.55;;;;;;;34.17;24.79;94114.34;2616973;54;20237;-78
2022/07/26 10:55:19;;;;;;;3.72;3.42;;;;;;;33.23;24.22;94107.31;2616639;47;20168;-77
2022/07/26 10:57:50;;;;;;;4.15;3.85;;;;;;;33.40;24.15;94093.03;2614833;47;20183;-78
2022/07/26 11:00:27;;;;;;;3.40;3.20;;;;;;;33.19;23.78;94094.34;2616751;46;20163;-77
2022/07/26 11:02:58;;;;;;;3.97;3.60;;;;;;;33.57;23.34;94102.19;2617261;47;20187;-77
2022/07/26 11:05:34;;;;;;;2.75;2.55;;;;;;;32.78;24.58;94046.34;2616704;47;20165;-77
2022/07/26 11:08:09;;;;;;;3.50;3.13;;;;;;;33.27;23.94;94054.28;2617058;47;20251;-79
2022/07/26 11:10:40;;;;;;;3.90;3.53;;;;;;;33.64;23.32;94079.69;2616256;47;20269;-79
2022/07/26 11:13:18;;;;;;;4.15;3.75;;;;;;;33.09;23.71;94064.94;2617120;54;20191;-79
2022/07/26 11:15:53;;;;;;;3.92;3.58;;;;;;;33.42;23.39;94010.72;2616223;50;20204;-77
2022/07/26 11:18:26;;;;;;;3.22;3.03;;;;;;;33.85;23.51;94073.19;2616664;47;20152;-78
2022/07/26 11:20:57;;;;;;;6.50;3.80;;;;;;;33.52;23.93;94068.75;2617014;47;20192;-78
2022/07/26 11:23:37;;;;;;;3.42;3.22;;;;;;;33.91;23.65;94075.00;2616530;54;20149;-78
2022/07/26 11:26:15;;;;;;;3.28;3.08;;;;;;;34.32;22.97;94072.97;2616317;47;20171;-78
2022/07/26 11:29:05;;;;;;;4.22;3.60;;;;;;;34.34;22.84;94011.81;2616926;54;20161;-80
2022/07/26 11:31:44;;;;;;;5.85;3.45;;;;;;;34.34;23.24;94022.88;2611811;47;20168;-79
2022/07/26 11:34:19;;;;;;;5.72;3.22;;;;;;;34.36;22.67;94026.38;2616984;39;20642;-80
2022/07/26 11:36:48;;;;;;;3.80;3.50;;;;;;;34.52;21.90;94039.94;2615639;47;20276;-79
2022/07/26 11:39:21;;;;;;;3.83;3.42;;;;;;;34.45;22.52;94026.47;2616379;54;20176;-81
2022/07/26 11:41:51;;;;;;;3.42;3.22;;;;;;;34.44;22.44;94055.19;2616677;54;20185;-80
2022/07/26 11:44:26;;;;;;;3.70;3.40;;;;;;;34.49;20.75;94046.78;2617049;39;20553;-81
2022/07/26 11:46:59;;;;;;;3.63;3.35;;;;;;;33.66;21.66;94023.06;2616804;47;20156;-77
2022/07/26 11:55:29;;;;;;;3.58;3.28;;;;;;;33.87;21.42;94003.28;2616147;47;20169;-80
2022/07/26 12:01:46;;;;;;;3.20;3.00;;;;;;;32.97;21.23;93825.19;2616220;47;20184;-80
2022/07/26 12:04:31;;;;;;;4.00;3.15;;;;;;;33.21;21.21;93863.94;2616533;54;20164;-80
2022/07/26 12:07:05;;;;;;;3.30;3.08;;;;;;;32.33;21.54;93798.63;2617271;47;20704;-80
2022/07/26 12:10:00;;;;;;;3.13;2.92;;;;;;;32.89;21.11;93803.00;2616858;54;20171;-81
2022/07/26 12:12:32;;;;;;;3.03;2.83;;;;;;;33.85;18.73;93973.34;2616759;54;20165;-78
2022/07/26 12:15:03;;;;;;;3.22;3.00;;;;;;;34.53;17.93;93988.41;2616736;54;20196;-78
2022/07/26 12:17:32;;;;;;;2.40;2.30;;;;;;;34.26;19.52;94018.22;2616681;47;20657;-78
2022/07/26 12:20:17;;;;;;;2.92;2.55;;;;;;;34.64;19.91;94011.19;2616981;54;20676;-81
2022/07/26 12:22:56;;;;;;;2.85;2.50;;;;;;;34.34;20.49;94014.75;2616271;47;20141;-78
2022/07/26 12:25:28;;;;;;;2.60;2.40;;;;;;;34.45;19.67;94009.53;2616489;54;20149;-77
2022/07/26 12:27:57;;;;;;;4.57;3.15;;;;;;;34.20;20.66;93972.31;2617329;54;20260;-79
2022/07/26 12:30:27;;;;;;;2.88;2.67;;;;;;;34.37;20.35;93985.91;2617455;47;20165;-79
2022/07/26 12:33:03;;;;;;;3.40;3.20;;;;;;;34.36;19.92;94017.53;2617366;54;20159;-81
2022/07/26 12:35:53;;;;;;;2.40;2.25;;;;;;;33.91;18.47;93954.56;2617428;54;20273;-81
2022/07/26 12:38:52;;;;;;;2.33;2.17;;;;;;;34.61;17.96;93980.53;2616998;54;20165;-81
2022/07/26 12:41:59;;;;;;;2.92;2.63;;;;;;;34.12;17.94;93870.06;2616246;54;20145;-84
2022/07/26 12:44:30;;;;;;;3.22;3.03;;;;;;;35.19;17.91;93982.16;2615538;54;20144;-80
2022/07/26 12:46:59;;;;;;;4.68;2.90;;;;;;;34.28;20.08;93935.81;2617388;54;20156;-80
2022/07/26 12:53:38;;;;;;;2.97;2.65;;;;;;;33.64;19.91;93817.66;2613772;39;20552;-81
2022/07/26 12:59:35;;;;;;;2.88;2.67;;;;;;;33.13;20.59;93780.78;2617321;46;20176;-81
2022/07/26 13:03:00;;;;;;;3.38;3.17;;;;;;;32.97;20.63;93767.22;2618955;54;20153;-82
2022/07/26 13:05:56;;;;;;;3.65;3.35;;;;;;;34.24;20.21;93872.13;2615227;54;20168;-78
2022/07/26 13:08:55;;;;;;;3.95;3.65;;;;;;;34.98;21.05;93970.50;2616615;47;20224;-79
2022/07/26 13:11:25;;;;;;;3.40;3.20;;;;;;;34.29;19.89;93869.63;2614894;39;20549;-80
2022/07/26 13:21:03;;;;;;;2.97;2.78;;;;;;;33.75;20.59;93869.00;2613728;47;20145;-81
2022/07/26 13:23:34;;;;;;;3.40;3.10;;;;;;;34.72;21.23;93987.06;2613882;54;20180;-79
2022/07/26 13:26:19;;;;;;;3.13;2.92;;;;;;;34.81;20.45;93940.88;2616202;54;20172;-79
2022/07/26 13:28:54;;;;;;;2.83;2.63;;;;;;;35.24;20.58;93992.09;2615699;54;20164;-78
2022/07/26 13:31:29;;;;;;;3.05;2.85;;;;;;;35.24;20.58;93994.34;2616255;54;20181;-78
2022/07/26 13:33:57;;;;;;;3.63;3.33;;;;;;;34.76;20.02;93922.81;2617288;47;20164;-77
2022/07/26 13:36:26;;;;;;;3.78;3.47;;;;;;;35.50;20.49;93982.88;2617127;47;20168;-79
2022/07/26 13:42:55;;;;;;;;;;;;;;;;;;;;;
2022/07/26 13:48:19;;;;;;;3.88;3.58;;;;;;;33.38;22.69;93873.72;2616586;54;20148;-78
2022/07/26 13:51:07;;;;;;;3.53;3.30;;;;;;;33.10;22.39;93759.00;2616727;47;20187;-79
2022/07/26 14:00:38;;;;;;;3.22;3.05;;;;;;;33.39;22.03;93780.53;2617010;47;20199;-81
2022/07/26 14:03:18;;;;;;;3.55;3.35;;;;;;;34.68;21.81;93926.31;2615282;46;20157;-77
2022/07/26 14:06:08;;;;;;;4.00;3.70;;;;;;;33.47;21.29;93756.47;2614513;54;20183;-78
2022/07/26 14:08:36;;;;;;;3.70;3.40;;;;;;;34.76;21.74;93972.09;2613179;47;20168;-78
2022/07/26 14:11:09;;;;;;;3.80;3.60;;;;;;;34.22;22.47;93950.91;2616187;47;20215;-80
2022/07/26 14:13:38;;;;;;;4.07;3.78;;;;;;;32.85;23.55;93902.97;2615817;47;20164;-79
2022/07/26 14:16:09;;;;;;;4.18;3.85;;;;;;;33.45;23.03;93947.41;2615872;47;20465;-79
2022/07/26 14:18:38;;;;;;;3.90;3.60;;;;;;;33.32;23.76;93929.94;2616640;54;20665;-78
2022/07/26 14:21:07;;;;;;;3.65;3.45;;;;;;;33.43;24.16;93954.13;2617112;47;20168;-79
2022/07/26 14:23:36;;;;;;;4.22;3.92;;;;;;;32.98;24.06;93943.91;2616699;54;20157;-79
2022/07/26 14:26:12;;;;;;;4.18;3.88;;;;;;;33.53;24.08;93953.44;2616563;54;20164;-79
2022/07/26 14:28:41;;;;;;;3.90;3.60;;;;;;;34.02;23.06;93935.44;2617181;47;20165;-79
2022/07/26 14:31:12;;;;;;;5.32;3.78;;;;;;;34.35;22.53;93918.44;2616670;47;20665;-80
2022/07/26 14:33:41;;;;;;;4.35;4.00;;;;;;;34.56;23.16;93907.34;2616268;47;20160;-79
2022/07/26 14:36:12;;;;;;;4.25;3.95;;;;;;;34.87;22.16;93908.03;2616680;54;20683;-79
2022/07/26 14:38:42;;;;;;;5.10;4.70;;;;;;;34.87;23.06;93934.53;2616606;54;20203;-80
2022/07/26 14:41:11;;;;;;;3.92;3.70;;;;;;;34.98;22.33;93891.06;2616596;54;20180;-79
2022/07/26 14:43:41;;;;;;;4.72;4.43;;;;;;;35.12;22.00;93945.22;2616706;47;20168;-77
2022/07/26 14:46:13;;;;;;;4.18;3.90;;;;;;;35.50;21.87;93944.59;2617352;46;20209;-76
2022/07/26 14:48:41;;;;;;;4.50;4.10;;;;;;;35.07;22.79;93933.03;2616634;54;20165;-78
2022/07/26 14:51:11;;;;;;;6.53;3.75;;;;;;;35.17;22.27;93941.09;2616940;54;20140;-77
2022/07/26 14:53:40;;;;;;;3.80;3.50;;;;;;;34.13;22.64;93897.91;2616632;54;20293;-78
2022/07/26 14:56:08;;;;;;;5.10;4.70;;;;;;;33.59;23.65;93931.06;2617110;54;20657;-78
2022/07/26 14:58:37;;;;;;;4.38;4.07;;;;;;;33.73;23.57;93909.53;2616474;54;20165;-78
2022/07/26 15:01:06;;;;;;;5.32;4.97;;;;;;;33.12;24.47;93931.94;2617195;39;20672;-77
2022/07/26 15:03:38;;;;;;;5.90;5.45;;;;;;;32.93;24.58;93925.91;2616583;47;20169;-77
2022/07/26 15:06:07;;;;;;;4.93;4.47;;;;;;;32.59;25.40;93928.81;2616889;47;20172;-77
2022/07/26 15:08:35;;;;;;;4.20;3.90;;;;;;;33.05;24.77;93928.03;2616781;47;20153;-78
2022/07/26 15:11:04;;;;;;;4.45;4.15;;;;;;;33.18;24.51;93927.91;2616884;54;20184;-77
2022/07/26 15:13:33;;;;;;;5.00;4.60;;;;;;;33.51;24.63;93921.25;2617139;39;20556;-77
2022/07/26 15:16:02;;;;;;;4.63;4.22;;;;;;;33.66;23.85;93894.56;2617237;54;20192;-77
2022/07/26 15:18:30;;;;;;;5.03;4.63;;;;;;;33.91;23.92;93904.63;2616629;54;20252;-78
2022/07/26 15:21:02;;;;;;;4.63;4.22;;;;;;;34.22;23.35;93918.59;2616332;47;20149;-78
2022/07/26 15:23:31;;;;;;;5.10;4.63;;;;;;;33.98;23.55;93912.19;2616267;47;20173;-76
2022/07/26 15:26:00;;;;;;;5.05;4.65;;;;;;;33.83;24.55;93918.38;2616136;47;20161;-76
2022/07/26 15:28:28;;;;;;;5.88;4.65;;;;;;;34.24;23.54;93912.56;2616803;47;20178;-76
2022/07/26 15:30:57;;;;;;;4.53;4.15;;;;;;;34.57;23.11;93908.72;2615804;47;20168;-79
2022/07/26 15:33:26;;;;;;;4.70;4.40;;;;;;;34.58;22.84;93915.28;2616612;54;20157;-77
2022/07/26 15:35:55;;;;;;;4.65;4.35;;;;;;;34.04;24.73;93914.00;2616899;54;20273;-79
2022/07/26 15:38:26;;;;;;;5.18;4.72;;;;;;;33.92;25.19;93903.09;2617478;54;20153;-79
2022/07/26 15:40:54;;;;;;;4.53;4.13;;;;;;;34.09;24.07;93918.06;2617399;54;20153;-78
2022/07/26 15:43:25;;;;;;;4.88;4.38;;;;;;;34.24;23.46;93910.31;2617381;47;20757;-78
2022/07/26 15:45:56;;;;;;;4.03;3.47;;;;;;;34.39;23.25;93915.91;2617363;54;20184;-80
2022/07/26 15:48:25;;;;;;;4.05;3.72;;;;;;;34.27;23.73;93919.72;2616464;47;20187;-79
2022/07/26 15:50:53;;;;;;;4.78;4.38;;;;;;;34.20;23.51;93909.91;2617203;47;20153;-82
2022/07/26 15:53:22;;;;;;;4.70;4.40;;;;;;;34.31;23.28;93887.09;2616898;54;20704;-81
2022/07/26 15:56:03;;;;;;;;;;;;;;;;;;;;;
2022/07/26 15:58:32;;;;;;;4.80;4.40;;;;;;;34.08;23.70;93899.72;2617133;54;20169;-79
2022/07/26 16:01:12;;;;;;;4.70;4.28;;;;;;;33.85;24.19;93885.22;2617335;54;20146;-80
2022/07/26 16:03:42;;;;;;;4.38;3.97;;;;;;;33.62;25.01;93882.41;2617435;54;20156;-79
2022/07/26 16:06:10;;;;;;;5.00;4.57;;;;;;;33.07;25.23;93871.47;2616253;54;20707;-79
2022/07/26 16:08:39;;;;;;;4.65;4.22;;;;;;;33.43;26.05;93907.16;2616414;54;20157;-78
2022/07/26 16:11:10;;;;;;;4.53;4.22;;;;;;;33.44;26.07;93911.50;2617339;39;20556;-79
2022/07/26 16:13:39;;;;;;;6.30;4.97;;;;;;;32.61;25.56;93807.78;2616819;54;20160;-80
2022/07/26 16:16:08;;;;;;;4.60;4.30;;;;;;;33.34;25.85;93902.69;2616933;54;20188;-81
2022/07/26 16:18:37;;;;;;;5.78;4.13;;;;;;;33.24;25.52;93886.44;2616563;54;20168;-79
2022/07/26 16:21:06;;;;;;;4.65;4.25;;;;;;;33.65;25.51;93910.09;2617023;47;20160;-78
2022/07/26 16:23:35;;;;;;;4.88;4.47;;;;;;;33.74;25.61;93891.09;2614589;47;20181;-77
2022/07/26 16:26:04;;;;;;;5.63;5.18;;;;;;;33.83;25.75;93900.75;2614053;54;20291;-78
2022/07/26 16:28:35;;;;;;;4.35;4.05;;;;;;;33.91;25.99;93922.97;2615226;54;20172;-78
2022/07/26 16:31:04;;;;;;;5.10;4.65;;;;;;;33.68;25.86;93917.22;2616587;54;20172;-79
2022/07/26 16:33:33;;;;;;;4.18;3.85;;;;;;;33.77;26.49;93926.88;2617379;39;20551;-78
2022/07/26 16:36:02;;;;;;;4.55;4.15;;;;;;;33.56;28.04;93932.75;2617094;47;20266;-78
2022/07/26 16:38:33;;;;;;;5.55;4.82;;;;;;;33.41;27.53;93894.84;2617102;54;20183;-79
2022/07/26 16:41:05;;;;;;;7.10;5.05;;;;;;;33.80;27.43;93922.28;2617218;54;20184;-79
2022/07/26 16:43:36;;;;;;;5.20;4.70;;;;;;;33.76;28.16;93926.19;2616438;54;20169;-78
2022/07/26 16:46:05;;;;;;;4.78;4.38;;;;;;;33.34;29.99;93923.22;2616997;39;20553;-78
2022/07/26 16:48:34;;;;;;;4.40;4.20;;;;;;;32.79;31.75;93921.66;2616509;54;20170;-79
2022/07/26 16:51:03;;;;;;;5.40;5.00;;;;;;;32.32;33.12;93918.06;2616862;47;20161;-78
2022/07/26 16:53:31;;;;;;;4.32;4.03;;;;;;;32.11;33.51;93909.16;2617191;47;20168;-78
2022/07/26 16:56:00;;;;;;;5.70;5.20;;;;;;;32.12;33.76;93914.16;2617869;39;20575;-78
2022/07/26 16:58:31;;;;;;;4.72;4.43;;;;;;;31.99;34.76;93934.03;2616216;54;20173;-78
2022/07/26 17:01:05;;;;;;;5.13;4.78;;;;;;;32.04;34.62;93932.25;2617513;39;20558;-78
2022/07/26 17:03:33;;;;;;;12.23;4.22;;;;;;;31.69;35.34;93900.78;2617708;54;20725;-78
2022/07/26 17:06:04;;;;;;;5.90;5.40;;;;;;;31.76;35.86;93925.91;2617563;54;20157;-78
2022/07/26 17:08:33;;;;;;;5.22;4.75;;;;;;;31.56;35.34;93932.28;2617514;47;20700;-79
2022/07/26 17:11:01;;;;;;;5.40;5.00;;;;;;;31.46;36.28;93930.66;2617819;47;20164;-79
2022/07/26 17:13:30;;;;;;;5.60;5.10;;;;;;;31.46;35.91;93933.59;2617670;54;20252;-79
2022/07/26 17:15:58;;;;;;;5.68;5.18;;;;;;;31.11;36.05;93893.28;2617447;39;20571;-79
2022/07/26 17:18:30;;;;;;;8.68;4.35;;;;;;;31.21;35.91;93928.47;2616964;47;20168;-79
2022/07/26 17:21:00;;;;;;;4.45;4.00;;;;;;;31.20;34.90;93918.28;2617199;47;20156;-78
2022/07/26 17:23:29;;;;;;;4.90;4.57;;;;;;;31.76;33.70;93931.06;2617635;54;20149;-78
2022/07/26 17:25:57;;;;;;;5.53;5.00;;;;;;;31.82;33.56;93910.22;2617429;54;20160;-78
2022/07/26 17:28:26;;;;;;;4.95;4.57;;;;;;;31.48;33.13;93910.06;2617950;46;20169;-78
2022/07/26 17:30:54;;;;;;;6.40;4.88;;;;;;;31.77;32.72;93938.31;2617527;39;20532;-78
2022/07/26 17:33:23;;;;;;;5.85;5.35;;;;;;;31.99;32.60;93925.22;2614544;47;20183;-78
2022/07/26 17:35:54;;;;;;;5.25;4.85;;;;;;;31.97;33.38;93937.09;2616929;54;20176;-78
2022/07/26 17:38:23;;;;;;;4.80;4.40;;;;;;;32.22;32.64;93936.31;2617127;54;20730;-78
2022/07/26 17:40:52;;;;;;;6.25;4.53;;;;;;;32.40;31.51;93940.28;2617107;47;20180;-78
2022/07/26 17:43:20;;;;;;;4.32;3.92;;;;;;;32.48;30.05;93934.63;2616958;47;20708;-78
2022/07/26 17:45:49;;;;;;;5.68;5.18;;;;;;;32.44;32.81;93940.75;2617729;39;20280;-78
2022/07/26 17:48:18;;;;;;;5.65;4.68;;;;;;;32.41;32.00;93932.91;2617146;47;20191;-78
2022/07/26 17:50:47;;;;;;;4.78;4.38;;;;;;;32.02;31.17;93876.03;2617192;54;20204;-78
2022/07/26 17:53:18;;;;;;;5.53;4.35;;;;;;;32.46;31.93;93937.69;2616927;54;20157;-78
2022/07/26 17:55:55;;;;;;;5.03;4.40;;;;;;;32.22;32.57;93944.38;2617188;54;20149;-78
2022/07/26 17:58:24;;;;;;;5.20;4.68;;;;;;;32.02;31.52;93926.50;2616703;47;20248;-78
2022/07/26 18:00:53;;;;;;;5.07;4.63;;;;;;;31.79;32.49;93941.84;2617301;47;20172;-78
2022/07/26 18:03:22;;;;;;;5.93;5.38;;;;;;;31.53;32.68;93934.63;2616842;47;20172;-77
2022/07/26 18:05:51;;;;;;;5.20;4.78;;;;;;;31.05;33.90;93932.31;2617651;47;20188;-77
2022/07/26 18:08:28;;;;;;;4.65;4.25;;;;;;;30.90;34.10;93958.75;2617371;54;20184;-77
2022/07/26 18:10:57;;;;;;;5.28;4.88;;;;;;;30.58;35.11;93954.75;2617657;54;20202;-77
2022/07/26 18:13:26;;;;;;;8.07;5.28;;;;;;;30.25;35.41;93955.81;2617626;47;20256;-77
2022/07/26 18:15:55;;;;;;;4.75;4.35;;;;;;;30.10;34.23;93897.50;2617053;47;20169;-77
2022/07/26 18:18:24;;;;;;;4.72;4.20;;;;;;;30.91;33.18;93948.47;2617456;54;20161;-77
2022/07/26 18:20:53;;;;;;;4.55;4.25;;;;;;;31.55;32.29;93966.00;2617641;47;20211;-76
2022/07/26 18:23:24;;;;;;;5.00;4.15;;;;;;;31.74;30.78;93964.09;2617595;54;20152;-76
2022/07/26 18:25:56;;;;;;;5.18;4.53;;;;;;;30.31;34.44;93941.59;2617336;47;20144;-78
2022/07/26 18:28:24;;;;;;;5.47;5.00;;;;;;;30.49;35.03;93971.28;2617689;47;20157;-78
2022/07/26 18:30:53;;;;;;;5.03;4.65;;;;;;;30.81;34.37;93978.28;2617594;47;20167;-76
2022/07/26 18:33:22;;;;;;;5.00;4.60;;;;;;;31.33;33.37;93991.41;2616776;47;20195;-75
2022/07/26 18:35:50;;;;;;;4.82;4.43;;;;;;;31.21;33.13;93959.94;2616779;46;20172;-76
2022/07/26 18:38:19;;;;;;;8.80;4.75;;;;;;;31.26;32.96;93984.53;2616917;47;20160;-77
2022/07/26 18:40:50;;;;;;;6.45;4.63;;;;;;;31.29;32.91;93985.81;2616334;54;20716;-77
2022/07/26 18:43:24;;;;;;;5.53;4.95;;;;;;;31.08;33.45;93981.09;2616536;47;20173;-78
2022/07/26 18:45:55;;;;;;;7.90;5.25;;;;;;;30.77;33.41;93972.66;2617022;54;20152;-76
2022/07/26 18:48:23;;;;;;;6.82;5.65;;;;;;;30.68;34.05;94003.88;2616094;54;20165;-75
2022/07/26 18:50:54;;;;;;;5.03;4.53;;;;;;;30.44;33.97;94005.19;2617305;54;20163;-75
2022/07/26 18:53:23;;;;;;;6.75;5.22;;;;;;;30.32;34.83;93997.81;2617371;47;20180;-76
2022/07/26 18:55:54;;;;;;;5.35;4.85;;;;;;;30.14;34.69;93990.00;2617495;47;20172;-75
2022/07/26 18:58:23;;;;;;;4.75;4.32;;;;;;;29.91;35.04;94008.00;2616915;46;20297;-75
2022/07/26 19:00:52;;;;;;;4.93;4.53;;;;;;;29.43;35.07;93979.81;2617050;54;20141;-76
2022/07/26 19:03:20;;;;;;;5.13;4.57;;;;;;;29.75;34.58;94008.84;2617298;54;20180;-75
2022/07/26 19:05:49;;;;;;;5.25;4.85;;;;;;;29.15;35.71;94010.38;2617153;54;20176;-75
2022/07/26 19:08:18;;;;;;;5.40;4.90;;;;;;;28.92;36.25;94014.41;2617303;47;20168;-75
2022/07/26 19:10:47;;;;;;;5.35;4.85;;;;;;;28.71;36.49;94011.00;2617059;54;20180;-75
2022/07/26 19:13:18;;;;;;;5.30;4.68;;;;;;;28.33;37.80;94012.81;2617135;47;20196;-76
2022/07/26 19:15:47;;;;;;;5.15;4.68;;;;;;;28.44;37.01;94007.94;2617416;39;20605;-76
2022/07/26 19:18:16;;;;;;;5.30;4.90;;;;;;;28.58;37.09;94007.25;2617504;54;20160;-76
2022/07/26 19:20:45;;;;;;;8.55;6.13;;;;;;;29.02;36.23;94007.34;2617858;39;20625;-76
2022/07/26 19:23:14;;;;;;;5.38;3.70;;;;;;;29.30;37.05;94005.25;2617101;47;20798;-76
2022/07/26 19:25:43;;;;;;;5.63;4.88;;;;;;;29.20;35.86;93973.69;2617319;47;20169;-75
2022/07/26 19:28:12;;;;;;;6.32;5.47;;;;;;;28.87;36.75;93998.59;2617314;54;20188;-76
2022/07/26 19:30:44;;;;;;;5.68;5.00;;;;;;;27.35;39.44;93996.72;2616400;54;20169;-76
2022/07/26 19:33:13;;;;;;;5.95;5.40;;;;;;;26.61;41.06;93998.31;2615515;46;20188;-76
2022/07/26 19:35:41;;;;;;;6.38;5.72;;;;;;;26.42;41.40;93998.31;2614926;46;20180;-76
2022/07/26 19:38:10;;;;;;;5.47;5.07;;;;;;;26.27;41.64;93996.72;2617073;54;20149;-75
2022/07/26 19:40:39;;;;;;;5.47;4.97;;;;;;;25.90;42.53;94009.69;2616142;54;20204;-75
2022/07/26 19:43:08;;;;;;;5.60;5.10;;;;;;;25.70;42.64;94002.44;2616576;47;20296;-75
2022/07/26 19:45:36;;;;;;;5.15;4.72;;;;;;;25.65;43.10;93995.38;2616826;47;20689;-75
2022/07/26 19:48:08;;;;;;;5.20;4.80;;;;;;;25.53;42.33;93948.69;2616956;39;20561;-75
2022/07/26 19:50:37;;;;;;;4.75;4.35;;;;;;;25.82;42.40;93999.09;2616953;39;20568;-76
2022/07/26 19:53:06;;;;;;;5.53;5.10;;;;;;;25.91;42.39;93996.59;2616294;54;20153;-76
2022/07/26 19:55:37;;;;;;;5.00;4.60;;;;;;;25.75;42.54;93988.50;2616573;47;20164;-75
2022/07/26 19:58:05;;;;;;;6.47;4.55;;;;;;;25.70;42.15;93975.63;2616791;54;20164;-75
2022/07/26 20:00:34;;;;;;;5.70;5.13;;;;;;;26.02;41.76;94003.44;2616488;54;20285;-75